sensor_id;sensor_type;location;lat;lon;timestamp;P1;durP1;ratioP1;P2;durP2;ratioP2
41799;SDS011;27468;47.460;19.034;2022-07-06T00:02:23;6.43;;;5.88;;
41799;SDS011;27468;47.460;19.034;2022-07-06T00:04:48;6.93;;;5.43;;
41799;SDS011;27468;47.460;19.034;2022-07-06T00:07:14;6.38;;;5.75;;
41799;SDS011;27468;47.460;19.034;2022-07-06T00:09:40;6.20;;;5.70;;
41799;SDS011;27468;47.460;19.034;2022-07-06T00:12:06;6.57;;;5.90;;
41799;SDS011;27468;47.460;19.034;2022-07-06T00:14:32;6.35;;;5.75;;
41799;SDS011;27468;47.460;19.034;2022-07-06T00:16:58;6.57;;;5.93;;
41799;SDS011;27468;47.460;19.034;2022-07-06T00:19:24;5.80;;;5.30;;
41799;SDS011;27468;47.460;19.034;2022-07-06T00:21:49;6.50;;;5.72;;
41799;SDS011;27468;47.460;19.034;2022-07-06T00:24:15;6.60;;;6.00;;
41799;SDS011;27468;47.460;19.034;2022-07-06T00:26:42;6.45;;;5.95;;
41799;SDS011;27468;47.460;19.034;2022-07-06T00:29:08;6.93;;;6.32;;
41799;SDS011;27468;47.460;19.034;2022-07-06T00:31:33;6.78;;;6.07;;
41799;SDS011;27468;47.460;19.034;2022-07-06T00:34:00;6.50;;;5.90;;
41799;SDS011;27468;47.460;19.034;2022-07-06T00:36:25;7.20;;;6.13;;
41799;SDS011;27468;47.460;19.034;2022-07-06T00:38:51;7.45;;;6.85;;
41799;SDS011;27468;47.460;19.034;2022-07-06T00:41:16;6.63;;;6.00;;
41799;SDS011;27468;47.460;19.034;2022-07-06T00:43:52;7.53;;;6.13;;
41799;SDS011;27468;47.460;19.034;2022-07-06T00:46:26;6.93;;;6.32;;
41799;SDS011;27468;47.460;19.034;2022-07-06T00:51:19;6.50;;;5.88;;
41799;SDS011;27468;47.460;19.034;2022-07-06T00:53:50;6.68;;;6.00;;
41799;SDS011;27468;47.460;19.034;2022-07-06T00:56:15;6.72;;;5.53;;
41799;SDS011;27468;47.460;19.034;2022-07-06T00:58:41;6.03;;;5.43;;
41799;SDS011;27468;47.460;19.034;2022-07-06T01:01:07;6.15;;;5.55;;
41799;SDS011;27468;47.460;19.034;2022-07-06T01:03:32;6.05;;;5.45;;
41799;SDS011;27468;47.460;19.034;2022-07-06T01:05:58;6.00;;;5.50;;
41799;SDS011;27468;47.460;19.034;2022-07-06T01:08:23;6.40;;;5.43;;
41799;SDS011;27468;47.460;19.034;2022-07-06T01:10:50;6.90;;;5.75;;
41799;SDS011;27468;47.460;19.034;2022-07-06T01:13:15;6.35;;;5.57;;
41799;SDS011;27468;47.460;19.034;2022-07-06T01:15:41;6.70;;;6.03;;
41799;SDS011;27468;47.460;19.034;2022-07-06T01:18:06;6.70;;;5.90;;
41799;SDS011;27468;47.460;19.034;2022-07-06T01:20:36;5.97;;;5.38;;
41799;SDS011;27468;47.460;19.034;2022-07-06T01:23:01;6.97;;;6.20;;
41799;SDS011;27468;47.460;19.034;2022-07-06T01:25:27;6.13;;;5.55;;
41799;SDS011;27468;47.460;19.034;2022-07-06T01:27:52;7.10;;;5.88;;
41799;SDS011;27468;47.460;19.034;2022-07-06T01:30:18;6.80;;;6.20;;
41799;SDS011;27468;47.460;19.034;2022-07-06T01:32:44;7.22;;;6.63;;
41799;SDS011;27468;47.460;19.034;2022-07-06T01:35:11;6.25;;;5.75;;
41799;SDS011;27468;47.460;19.034;2022-07-06T01:37:40;6.80;;;6.20;;
41799;SDS011;27468;47.460;19.034;2022-07-06T01:40:09;7.45;;;6.15;;
41799;SDS011;27468;47.460;19.034;2022-07-06T01:42:35;7.20;;;6.50;;
41799;SDS011;27468;47.460;19.034;2022-07-06T01:45:01;6.72;;;6.13;;
41799;SDS011;27468;47.460;19.034;2022-07-06T01:47:28;7.05;;;6.40;;
41799;SDS011;27468;47.460;19.034;2022-07-06T01:49:54;7.70;;;5.97;;
41799;SDS011;27468;47.460;19.034;2022-07-06T01:52:19;7.38;;;6.32;;
41799;SDS011;27468;47.460;19.034;2022-07-06T01:54:44;6.80;;;6.15;;
41799;SDS011;27468;47.460;19.034;2022-07-06T01:57:10;6.68;;;6.07;;
41799;SDS011;27468;47.460;19.034;2022-07-06T01:59:36;7.00;;;6.30;;
41799;SDS011;27468;47.460;19.034;2022-07-06T02:02:01;6.30;;;5.70;;
41799;SDS011;27468;47.460;19.034;2022-07-06T02:04:27;6.72;;;6.13;;
41799;SDS011;27468;47.460;19.034;2022-07-06T02:06:52;7.40;;;6.70;;
41799;SDS011;27468;47.460;19.034;2022-07-06T02:09:18;7.63;;;6.30;;
41799;SDS011;27468;47.460;19.034;2022-07-06T02:11:43;7.03;;;6.35;;
41799;SDS011;27468;47.460;19.034;2022-07-06T02:14:09;7.45;;;6.75;;
41799;SDS011;27468;47.460;19.034;2022-07-06T02:16:35;7.93;;;6.65;;
41799;SDS011;27468;47.460;19.034;2022-07-06T02:19:00;7.20;;;6.47;;
41799;SDS011;27468;47.460;19.034;2022-07-06T02:21:26;6.82;;;6.20;;
41799;SDS011;27468;47.460;19.034;2022-07-06T02:23:51;7.03;;;6.43;;
41799;SDS011;27468;47.460;19.034;2022-07-06T02:26:17;7.28;;;6.30;;
41799;SDS011;27468;47.460;19.034;2022-07-06T02:28:42;8.63;;;6.53;;
41799;SDS011;27468;47.460;19.034;2022-07-06T02:31:07;7.13;;;6.40;;
41799;SDS011;27468;47.460;19.034;2022-07-06T02:33:33;7.30;;;6.18;;
41799;SDS011;27468;47.460;19.034;2022-07-06T02:35:58;6.10;;;5.60;;
41799;SDS011;27468;47.460;19.034;2022-07-06T02:38:24;6.82;;;6.13;;
41799;SDS011;27468;47.460;19.034;2022-07-06T02:40:49;6.57;;;4.97;;
41799;SDS011;27468;47.460;19.034;2022-07-06T02:43:15;5.78;;;5.25;;
41799;SDS011;27468;47.460;19.034;2022-07-06T02:45:40;5.30;;;4.90;;
41799;SDS011;27468;47.460;19.034;2022-07-06T02:48:06;5.20;;;4.70;;
41799;SDS011;27468;47.460;19.034;2022-07-06T02:50:31;5.45;;;4.93;;
41799;SDS011;27468;47.460;19.034;2022-07-06T02:52:56;5.75;;;5.25;;
41799;SDS011;27468;47.460;19.034;2022-07-06T02:55:23;5.25;;;4.78;;
41799;SDS011;27468;47.460;19.034;2022-07-06T02:57:49;6.47;;;5.30;;
41799;SDS011;27468;47.460;19.034;2022-07-06T03:00:14;6.20;;;5.38;;
41799;SDS011;27468;47.460;19.034;2022-07-06T03:02:40;5.57;;;5.07;;
41799;SDS011;27468;47.460;19.034;2022-07-06T03:05:05;5.57;;;4.97;;
41799;SDS011;27468;47.460;19.034;2022-07-06T03:07:31;6.60;;;6.10;;
41799;SDS011;27468;47.460;19.034;2022-07-06T03:09:57;7.10;;;6.40;;
41799;SDS011;27468;47.460;19.034;2022-07-06T03:12:22;7.03;;;6.32;;
41799;SDS011;27468;47.460;19.034;2022-07-06T03:14:47;8.02;;;7.13;;
41799;SDS011;27468;47.460;19.034;2022-07-06T03:17:13;7.45;;;6.65;;
41799;SDS011;27468;47.460;19.034;2022-07-06T03:19:38;8.30;;;7.40;;
41799;SDS011;27468;47.460;19.034;2022-07-06T03:22:04;8.23;;;7.15;;
41799;SDS011;27468;47.460;19.034;2022-07-06T03:24:29;7.47;;;6.78;;
41799;SDS011;27468;47.460;19.034;2022-07-06T03:26:55;7.25;;;6.55;;
41799;SDS011;27468;47.460;19.034;2022-07-06T03:29:20;6.90;;;6.25;;
41799;SDS011;27468;47.460;19.034;2022-07-06T03:31:46;7.25;;;6.55;;
41799;SDS011;27468;47.460;19.034;2022-07-06T03:34:12;6.07;;;5.57;;
41799;SDS011;27468;47.460;19.034;2022-07-06T03:36:37;6.57;;;5.70;;
41799;SDS011;27468;47.460;19.034;2022-07-06T03:39:03;5.88;;;5.38;;
41799;SDS011;27468;47.460;19.034;2022-07-06T03:41:28;6.75;;;5.70;;
41799;SDS011;27468;47.460;19.034;2022-07-06T03:43:54;6.25;;;5.65;;
41799;SDS011;27468;47.460;19.034;2022-07-06T03:46:19;5.95;;;5.35;;
41799;SDS011;27468;47.460;19.034;2022-07-06T03:48:45;5.78;;;5.28;;
41799;SDS011;27468;47.460;19.034;2022-07-06T03:51:10;5.60;;;5.00;;
41799;SDS011;27468;47.460;19.034;2022-07-06T03:53:36;5.78;;;5.00;;
41799;SDS011;27468;47.460;19.034;2022-07-06T03:56:02;5.45;;;4.95;;
41799;SDS011;27468;47.460;19.034;2022-07-06T03:58:47;5.50;;;4.93;;
41799;SDS011;27468;47.460;19.034;2022-07-06T04:01:12;5.43;;;4.75;;
41799;SDS011;27468;47.460;19.034;2022-07-06T04:03:37;4.60;;;3.83;;
41799;SDS011;27468;47.460;19.034;2022-07-06T04:06:03;4.60;;;4.00;;
41799;SDS011;27468;47.460;19.034;2022-07-06T04:08:29;4.55;;;4.18;;
41799;SDS011;27468;47.460;19.034;2022-07-06T04:10:54;4.90;;;4.13;;
41799;SDS011;27468;47.460;19.034;2022-07-06T04:13:20;4.50;;;3.70;;
41799;SDS011;27468;47.460;19.034;2022-07-06T04:15:45;4.38;;;3.78;;
41799;SDS011;27468;47.460;19.034;2022-07-06T04:18:11;4.35;;;3.95;;
41799;SDS011;27468;47.460;19.034;2022-07-06T04:20:36;4.30;;;3.92;;
41799;SDS011;27468;47.460;19.034;2022-07-06T04:23:02;4.53;;;4.13;;
41799;SDS011;27468;47.460;19.034;2022-07-06T04:25:27;5.13;;;4.03;;
41799;SDS011;27468;47.460;19.034;2022-07-06T04:27:53;4.25;;;3.80;;
41799;SDS011;27468;47.460;19.034;2022-07-06T04:30:18;4.32;;;3.92;;
41799;SDS011;27468;47.460;19.034;2022-07-06T04:32:44;4.00;;;3.70;;
41799;SDS011;27468;47.460;19.034;2022-07-06T04:35:10;3.92;;;3.60;;
41799;SDS011;27468;47.460;19.034;2022-07-06T04:37:35;4.13;;;3.63;;
41799;SDS011;27468;47.460;19.034;2022-07-06T04:40:01;3.80;;;3.50;;
41799;SDS011;27468;47.460;19.034;2022-07-06T04:42:26;4.57;;;3.88;;
41799;SDS011;27468;47.460;19.034;2022-07-06T04:44:52;4.25;;;3.85;;
41799;SDS011;27468;47.460;19.034;2022-07-06T04:47:18;3.95;;;3.55;;
41799;SDS011;27468;47.460;19.034;2022-07-06T04:49:43;4.82;;;3.78;;
41799;SDS011;27468;47.460;19.034;2022-07-06T04:52:09;4.40;;;4.00;;
41799;SDS011;27468;47.460;19.034;2022-07-06T04:54:34;3.85;;;3.55;;
41799;SDS011;27468;47.460;19.034;2022-07-06T04:57:00;4.07;;;3.72;;
41799;SDS011;27468;47.460;19.034;2022-07-06T04:59:25;5.00;;;3.83;;
41799;SDS011;27468;47.460;19.034;2022-07-06T05:01:51;5.80;;;3.72;;
41799;SDS011;27468;47.460;19.034;2022-07-06T05:04:16;3.90;;;3.60;;
41799;SDS011;27468;47.460;19.034;2022-07-06T05:06:44;4.10;;;3.70;;
41799;SDS011;27468;47.460;19.034;2022-07-06T05:09:10;4.05;;;3.67;;
41799;SDS011;27468;47.460;19.034;2022-07-06T05:11:36;4.10;;;3.80;;
41799;SDS011;27468;47.460;19.034;2022-07-06T05:14:02;4.38;;;3.63;;
41799;SDS011;27468;47.460;19.034;2022-07-06T05:16:28;4.30;;;3.80;;
41799;SDS011;27468;47.460;19.034;2022-07-06T05:18:53;4.10;;;3.70;;
41799;SDS011;27468;47.460;19.034;2022-07-06T05:21:19;4.10;;;3.50;;
41799;SDS011;27468;47.460;19.034;2022-07-06T05:23:44;4.20;;;3.80;;
41799;SDS011;27468;47.460;19.034;2022-07-06T05:26:10;3.63;;;3.33;;
41799;SDS011;27468;47.460;19.034;2022-07-06T05:28:35;4.65;;;3.80;;
41799;SDS011;27468;47.460;19.034;2022-07-06T05:31:00;4.32;;;3.92;;
41799;SDS011;27468;47.460;19.034;2022-07-06T05:33:29;3.67;;;3.38;;
41799;SDS011;27468;47.460;19.034;2022-07-06T05:35:54;3.95;;;3.60;;
41799;SDS011;27468;47.460;19.034;2022-07-06T05:38:20;3.80;;;3.50;;
41799;SDS011;27468;47.460;19.034;2022-07-06T05:40:46;4.18;;;3.75;;
41799;SDS011;27468;47.460;19.034;2022-07-06T05:43:11;4.00;;;3.70;;
41799;SDS011;27468;47.460;19.034;2022-07-06T05:45:37;3.90;;;3.60;;
41799;SDS011;27468;47.460;19.034;2022-07-06T05:48:02;4.07;;;3.50;;
41799;SDS011;27468;47.460;19.034;2022-07-06T05:50:46;4.53;;;4.13;;
41799;SDS011;27468;47.460;19.034;2022-07-06T05:53:11;5.03;;;3.95;;
41799;SDS011;27468;47.460;19.034;2022-07-06T05:55:37;4.70;;;3.65;;
41799;SDS011;27468;47.460;19.034;2022-07-06T05:58:03;4.40;;;3.92;;
41799;SDS011;27468;47.460;19.034;2022-07-06T06:00:28;4.70;;;4.20;;
41799;SDS011;27468;47.460;19.034;2022-07-06T06:02:54;4.75;;;4.30;;
41799;SDS011;27468;47.460;19.034;2022-07-06T06:05:20;4.55;;;4.03;;
41799;SDS011;27468;47.460;19.034;2022-07-06T06:07:46;4.93;;;4.43;;
41799;SDS011;27468;47.460;19.034;2022-07-06T06:10:13;5.00;;;4.50;;
41799;SDS011;27468;47.460;19.034;2022-07-06T06:12:40;4.95;;;4.55;;
41799;SDS011;27468;47.460;19.034;2022-07-06T06:15:06;4.80;;;4.32;;
41799;SDS011;27468;47.460;19.034;2022-07-06T06:17:33;5.32;;;4.68;;
41799;SDS011;27468;47.460;19.034;2022-07-06T06:19:59;4.95;;;4.55;;
41799;SDS011;27468;47.460;19.034;2022-07-06T06:22:24;5.72;;;4.60;;
41799;SDS011;27468;47.460;19.034;2022-07-06T06:24:50;5.80;;;5.20;;
41799;SDS011;27468;47.460;19.034;2022-07-06T06:27:16;5.68;;;4.75;;
41799;SDS011;27468;47.460;19.034;2022-07-06T06:29:42;5.30;;;4.63;;
41799;SDS011;27468;47.460;19.034;2022-07-06T06:32:09;5.10;;;4.55;;
41799;SDS011;27468;47.460;19.034;2022-07-06T06:34:36;5.45;;;4.93;;
41799;SDS011;27468;47.460;19.034;2022-07-06T06:37:01;6.45;;;5.10;;
41799;SDS011;27468;47.460;19.034;2022-07-06T06:39:27;7.45;;;5.38;;
41799;SDS011;27468;47.460;19.034;2022-07-06T06:41:52;4.88;;;4.45;;
41799;SDS011;27468;47.460;19.034;2022-07-06T06:44:18;7.35;;;4.43;;
41799;SDS011;27468;47.460;19.034;2022-07-06T06:46:43;4.90;;;4.38;;
41799;SDS011;27468;47.460;19.034;2022-07-06T06:49:09;5.05;;;4.55;;
41799;SDS011;27468;47.460;19.034;2022-07-06T06:51:35;6.18;;;5.07;;
41799;SDS011;27468;47.460;19.034;2022-07-06T06:54:00;7.22;;;4.75;;
41799;SDS011;27468;47.460;19.034;2022-07-06T06:56:26;7.18;;;4.85;;
41799;SDS011;27468;47.460;19.034;2022-07-06T06:58:51;6.45;;;5.00;;
41799;SDS011;27468;47.460;19.034;2022-07-06T07:01:17;5.68;;;5.00;;
41799;SDS011;27468;47.460;19.034;2022-07-06T07:03:42;5.88;;;4.90;;
41799;SDS011;27468;47.460;19.034;2022-07-06T07:06:07;5.22;;;4.70;;
41799;SDS011;27468;47.460;19.034;2022-07-06T07:08:33;5.15;;;4.70;;
41799;SDS011;27468;47.460;19.034;2022-07-06T07:10:58;6.35;;;4.40;;
41799;SDS011;27468;47.460;19.034;2022-07-06T07:13:24;5.70;;;5.00;;
41799;SDS011;27468;47.460;19.034;2022-07-06T07:15:49;6.22;;;5.25;;
41799;SDS011;27468;47.460;19.034;2022-07-06T07:18:15;5.05;;;4.65;;
41799;SDS011;27468;47.460;19.034;2022-07-06T07:20:40;5.65;;;5.10;;
41799;SDS011;27468;47.460;19.034;2022-07-06T07:23:06;5.20;;;4.70;;
41799;SDS011;27468;47.460;19.034;2022-07-06T07:25:31;5.90;;;4.63;;
41799;SDS011;27468;47.460;19.034;2022-07-06T07:27:57;6.00;;;4.90;;
41799;SDS011;27468;47.460;19.034;2022-07-06T07:30:22;5.07;;;4.57;;
41799;SDS011;27468;47.460;19.034;2022-07-06T07:32:48;5.20;;;4.70;;
41799;SDS011;27468;47.460;19.034;2022-07-06T07:35:13;5.38;;;4.60;;
41799;SDS011;27468;47.460;19.034;2022-07-06T07:37:39;4.93;;;4.43;;
41799;SDS011;27468;47.460;19.034;2022-07-06T07:40:04;6.47;;;4.65;;
41799;SDS011;27468;47.460;19.034;2022-07-06T07:42:31;5.10;;;4.70;;
41799;SDS011;27468;47.460;19.034;2022-07-06T07:44:56;5.25;;;4.75;;
41799;SDS011;27468;47.460;19.034;2022-07-06T07:47:22;4.70;;;4.30;;
41799;SDS011;27468;47.460;19.034;2022-07-06T07:49:47;6.28;;;4.50;;
41799;SDS011;27468;47.460;19.034;2022-07-06T07:52:13;5.60;;;4.38;;
41799;SDS011;27468;47.460;19.034;2022-07-06T07:54:38;4.50;;;4.10;;
41799;SDS011;27468;47.460;19.034;2022-07-06T07:57:04;4.68;;;4.07;;
41799;SDS011;27468;47.460;19.034;2022-07-06T07:59:30;4.95;;;4.38;;
41799;SDS011;27468;47.460;19.034;2022-07-06T08:01:55;4.32;;;3.92;;
41799;SDS011;27468;47.460;19.034;2022-07-06T08:04:21;4.30;;;3.90;;
41799;SDS011;27468;47.460;19.034;2022-07-06T08:06:46;4.70;;;4.20;;
41799;SDS011;27468;47.460;19.034;2022-07-06T08:09:12;4.28;;;3.90;;
41799;SDS011;27468;47.460;19.034;2022-07-06T08:11:38;5.18;;;4.20;;
41799;SDS011;27468;47.460;19.034;2022-07-06T08:14:03;4.25;;;3.85;;
41799;SDS011;27468;47.460;19.034;2022-07-06T08:16:29;4.30;;;3.90;;
41799;SDS011;27468;47.460;19.034;2022-07-06T08:18:55;5.47;;;4.18;;
41799;SDS011;27468;47.460;19.034;2022-07-06T08:21:21;4.93;;;4.43;;
41799;SDS011;27468;47.460;19.034;2022-07-06T08:23:46;4.43;;;3.75;;
41799;SDS011;27468;47.460;19.034;2022-07-06T08:26:12;4.65;;;4.15;;
41799;SDS011;27468;47.460;19.034;2022-07-06T08:28:37;4.30;;;3.90;;
41799;SDS011;27468;47.460;19.034;2022-07-06T08:31:03;4.30;;;3.90;;
41799;SDS011;27468;47.460;19.034;2022-07-06T08:33:28;4.97;;;4.22;;
41799;SDS011;27468;47.460;19.034;2022-07-06T08:35:54;4.22;;;3.80;;
41799;SDS011;27468;47.460;19.034;2022-07-06T08:38:19;4.45;;;4.05;;
41799;SDS011;27468;47.460;19.034;2022-07-06T08:40:46;4.18;;;3.80;;
41799;SDS011;27468;47.460;19.034;2022-07-06T08:43:13;4.82;;;3.70;;
41799;SDS011;27468;47.460;19.034;2022-07-06T08:45:40;3.80;;;3.50;;
41799;SDS011;27468;47.460;19.034;2022-07-06T08:48:08;4.68;;;3.88;;
41799;SDS011;27468;47.460;19.034;2022-07-06T08:50:34;5.22;;;3.80;;
41799;SDS011;27468;47.460;19.034;2022-07-06T08:53:00;4.65;;;3.70;;
41799;SDS011;27468;47.460;19.034;2022-07-06T08:55:26;4.50;;;3.20;;
41799;SDS011;27468;47.460;19.034;2022-07-06T08:57:53;4.30;;;3.90;;
41799;SDS011;27468;47.460;19.034;2022-07-06T09:00:20;4.00;;;3.60;;
41799;SDS011;27468;47.460;19.034;2022-07-06T09:02:46;4.07;;;3.67;;
41799;SDS011;27468;47.460;19.034;2022-07-06T09:05:14;4.72;;;3.85;;
41799;SDS011;27468;47.460;19.034;2022-07-06T09:07:40;4.15;;;3.75;;
41799;SDS011;27468;47.460;19.034;2022-07-06T09:10:07;3.97;;;3.67;;
41799;SDS011;27468;47.460;19.034;2022-07-06T09:12:33;5.50;;;3.95;;
41799;SDS011;27468;47.460;19.034;2022-07-06T09:14:59;3.92;;;3.63;;
41799;SDS011;27468;47.460;19.034;2022-07-06T09:17:25;4.00;;;3.60;;
41799;SDS011;27468;47.460;19.034;2022-07-06T09:19:54;3.92;;;3.58;;
41799;SDS011;27468;47.460;19.034;2022-07-06T09:22:27;4.45;;;3.70;;
41799;SDS011;27468;47.460;19.034;2022-07-06T09:25:14;4.72;;;3.92;;
41799;SDS011;27468;47.460;19.034;2022-07-06T09:27:45;4.50;;;4.10;;
41799;SDS011;27468;47.460;19.034;2022-07-06T09:30:15;4.47;;;3.95;;
41799;SDS011;27468;47.460;19.034;2022-07-06T09:32:41;4.70;;;4.30;;
41799;SDS011;27468;47.460;19.034;2022-07-06T09:35:22;4.60;;;4.18;;
41799;SDS011;27468;47.460;19.034;2022-07-06T09:38:02;4.57;;;4.05;;
41799;SDS011;27468;47.460;19.034;2022-07-06T09:40:28;4.45;;;4.03;;
41799;SDS011;27468;47.460;19.034;2022-07-06T09:43:14;5.60;;;4.22;;
41799;SDS011;27468;47.460;19.034;2022-07-06T09:45:45;4.78;;;4.22;;
41799;SDS011;27468;47.460;19.034;2022-07-06T09:48:14;4.93;;;4.43;;
41799;SDS011;27468;47.460;19.034;2022-07-06T09:50:50;4.53;;;4.07;;
41799;SDS011;27468;47.460;19.034;2022-07-06T09:53:18;6.13;;;4.10;;
41799;SDS011;27468;47.460;19.034;2022-07-06T09:55:48;4.93;;;4.47;;
41799;SDS011;27468;47.460;19.034;2022-07-06T09:58:16;4.65;;;4.03;;
41799;SDS011;27468;47.460;19.034;2022-07-06T10:00:42;4.20;;;3.80;;
41799;SDS011;27468;47.460;19.034;2022-07-06T10:03:09;4.35;;;3.95;;
41799;SDS011;27468;47.460;19.034;2022-07-06T10:05:40;4.80;;;4.10;;
41799;SDS011;27468;47.460;19.034;2022-07-06T10:08:07;4.53;;;4.13;;
41799;SDS011;27468;47.460;19.034;2022-07-06T10:10:37;4.72;;;3.67;;
41799;SDS011;27468;47.460;19.034;2022-07-06T10:13:03;5.28;;;3.55;;
41799;SDS011;27468;47.460;19.034;2022-07-06T10:15:32;4.20;;;3.88;;
41799;SDS011;27468;47.460;19.034;2022-07-06T10:17:59;4.30;;;3.90;;
41799;SDS011;27468;47.460;19.034;2022-07-06T10:20:31;5.38;;;4.20;;
41799;SDS011;27468;47.460;19.034;2022-07-06T10:22:59;4.82;;;4.40;;
41799;SDS011;27468;47.460;19.034;2022-07-06T10:25:26;4.55;;;4.10;;
41799;SDS011;27468;47.460;19.034;2022-07-06T10:27:52;5.40;;;4.28;;
41799;SDS011;27468;47.460;19.034;2022-07-06T10:30:19;4.60;;;4.20;;
41799;SDS011;27468;47.460;19.034;2022-07-06T10:32:46;4.28;;;3.88;;
41799;SDS011;27468;47.460;19.034;2022-07-06T10:35:13;6.22;;;4.40;;
41799;SDS011;27468;47.460;19.034;2022-07-06T10:37:40;4.75;;;3.92;;
41799;SDS011;27468;47.460;19.034;2022-07-06T10:40:06;4.40;;;4.00;;
41799;SDS011;27468;47.460;19.034;2022-07-06T10:42:58;5.78;;;4.30;;
41799;SDS011;27468;47.460;19.034;2022-07-06T10:50:37;4.05;;;3.75;;
41799;SDS011;27468;47.460;19.034;2022-07-06T10:53:09;5.20;;;3.65;;
41799;SDS011;27468;47.460;19.034;2022-07-06T10:55:37;4.35;;;3.65;;
41799;SDS011;27468;47.460;19.034;2022-07-06T10:58:03;4.13;;;3.47;;
41799;SDS011;27468;47.460;19.034;2022-07-06T11:11:20;4.05;;;3.65;;
41799;SDS011;27468;47.460;19.034;2022-07-06T11:13:53;4.00;;;3.70;;
41799;SDS011;27468;47.460;19.034;2022-07-06T11:16:20;3.53;;;3.22;;
41799;SDS011;27468;47.460;19.034;2022-07-06T11:19:29;4.22;;;3.83;;
41799;SDS011;27468;47.460;19.034;2022-07-06T11:24:09;4.43;;;4.03;;
41799;SDS011;27468;47.460;19.034;2022-07-06T11:26:37;4.78;;;3.90;;
41799;SDS011;27468;47.460;19.034;2022-07-06T11:29:04;3.78;;;3.13;;
41799;SDS011;27468;47.460;19.034;2022-07-06T11:31:33;3.92;;;3.55;;
41799;SDS011;27468;47.460;19.034;2022-07-06T11:34:00;4.47;;;4.05;;
41799;SDS011;27468;47.460;19.034;2022-07-06T11:36:26;4.60;;;3.85;;
41799;SDS011;27468;47.460;19.034;2022-07-06T11:38:51;3.92;;;3.58;;
41799;SDS011;27468;47.460;19.034;2022-07-06T11:41:17;4.30;;;3.90;;
41799;SDS011;27468;47.460;19.034;2022-07-06T11:43:43;3.95;;;3.58;;
41799;SDS011;27468;47.460;19.034;2022-07-06T11:46:23;4.53;;;3.78;;
41799;SDS011;27468;47.460;19.034;2022-07-06T11:48:54;4.07;;;3.78;;
41799;SDS011;27468;47.460;19.034;2022-07-06T11:51:21;4.90;;;4.40;;
41799;SDS011;27468;47.460;19.034;2022-07-06T11:53:49;4.78;;;4.07;;
41799;SDS011;27468;47.460;19.034;2022-07-06T11:56:17;5.72;;;4.20;;
41799;SDS011;27468;47.460;19.034;2022-07-06T11:58:45;4.53;;;4.13;;
41799;SDS011;27468;47.460;19.034;2022-07-06T12:01:12;4.47;;;4.10;;
41799;SDS011;27468;47.460;19.034;2022-07-06T12:03:39;4.78;;;4.25;;
41799;SDS011;27468;47.460;19.034;2022-07-06T12:06:05;4.30;;;3.90;;
41799;SDS011;27468;47.460;19.034;2022-07-06T12:08:40;3.80;;;3.50;;
41799;SDS011;27468;47.460;19.034;2022-07-06T12:11:07;4.97;;;3.47;;
41799;SDS011;27468;47.460;19.034;2022-07-06T12:13:37;4.22;;;3.70;;
41799;SDS011;27468;47.460;19.034;2022-07-06T12:16:11;4.57;;;4.18;;
41799;SDS011;27468;47.460;19.034;2022-07-06T12:18:40;4.63;;;3.95;;
41799;SDS011;27468;47.460;19.034;2022-07-06T12:21:07;4.00;;;3.65;;
41799;SDS011;27468;47.460;19.034;2022-07-06T12:23:41;4.80;;;3.78;;
41799;SDS011;27468;47.460;19.034;2022-07-06T12:26:11;4.25;;;3.85;;
41799;SDS011;27468;47.460;19.034;2022-07-06T12:28:38;4.32;;;3.85;;
41799;SDS011;27468;47.460;19.034;2022-07-06T12:31:03;5.63;;;4.43;;
41799;SDS011;27468;47.460;19.034;2022-07-06T12:33:29;4.60;;;4.20;;
41799;SDS011;27468;47.460;19.034;2022-07-06T12:35:54;4.32;;;3.92;;
41799;SDS011;27468;47.460;19.034;2022-07-06T12:38:26;5.25;;;4.20;;
41799;SDS011;27468;47.460;19.034;2022-07-06T12:40:55;5.75;;;4.20;;
41799;SDS011;27468;47.460;19.034;2022-07-06T12:43:39;5.00;;;4.20;;
41799;SDS011;27468;47.460;19.034;2022-07-06T12:48:57;4.85;;;3.70;;
41799;SDS011;27468;47.460;19.034;2022-07-06T12:51:24;3.85;;;3.30;;
41799;SDS011;27468;47.460;19.034;2022-07-06T12:53:50;3.88;;;3.22;;
41799;SDS011;27468;47.460;19.034;2022-07-06T12:56:16;3.50;;;3.20;;
41799;SDS011;27468;47.460;19.034;2022-07-06T12:59:00;3.30;;;2.67;;
41799;SDS011;27468;47.460;19.034;2022-07-06T13:01:26;4.28;;;3.20;;
41799;SDS011;27468;47.460;19.034;2022-07-06T13:03:55;3.47;;;3.17;;
41799;SDS011;27468;47.460;19.034;2022-07-06T13:06:32;3.33;;;3.03;;
41799;SDS011;27468;47.460;19.034;2022-07-06T13:08:59;4.30;;;2.88;;
41799;SDS011;27468;47.460;19.034;2022-07-06T13:11:25;3.38;;;3.05;;
41799;SDS011;27468;47.460;19.034;2022-07-06T13:13:51;4.10;;;2.80;;
41799;SDS011;27468;47.460;19.034;2022-07-06T13:16:17;4.03;;;3.10;;
41799;SDS011;27468;47.460;19.034;2022-07-06T13:18:43;3.25;;;2.95;;
41799;SDS011;27468;47.460;19.034;2022-07-06T13:21:08;3.47;;;3.17;;
41799;SDS011;27468;47.460;19.034;2022-07-06T13:23:34;3.25;;;2.95;;
41799;SDS011;27468;47.460;19.034;2022-07-06T13:25:59;3.35;;;3.05;;
41799;SDS011;27468;47.460;19.034;2022-07-06T13:28:25;3.50;;;3.05;;
41799;SDS011;27468;47.460;19.034;2022-07-06T13:30:50;3.97;;;3.10;;
41799;SDS011;27468;47.460;19.034;2022-07-06T13:33:16;3.97;;;3.28;;
41799;SDS011;27468;47.460;19.034;2022-07-06T13:35:41;3.25;;;2.95;;
41799;SDS011;27468;47.460;19.034;2022-07-06T13:38:06;3.88;;;2.58;;
41799;SDS011;27468;47.460;19.034;2022-07-06T13:40:33;3.42;;;2.97;;
41799;SDS011;27468;47.460;19.034;2022-07-06T13:43:00;3.25;;;2.95;;
41799;SDS011;27468;47.460;19.034;2022-07-06T13:45:26;6.25;;;2.92;;
41799;SDS011;27468;47.460;19.034;2022-07-06T13:47:51;3.22;;;2.90;;
41799;SDS011;27468;47.460;19.034;2022-07-06T13:50:17;4.38;;;3.08;;
41799;SDS011;27468;47.460;19.034;2022-07-06T13:52:42;3.58;;;2.95;;
41799;SDS011;27468;47.460;19.034;2022-07-06T13:55:08;3.80;;;2.90;;
41799;SDS011;27468;47.460;19.034;2022-07-06T13:57:34;4.10;;;3.25;;
41799;SDS011;27468;47.460;19.034;2022-07-06T14:00:00;4.78;;;3.05;;
41799;SDS011;27468;47.460;19.034;2022-07-06T14:02:26;3.40;;;3.10;;
41799;SDS011;27468;47.460;19.034;2022-07-06T14:04:51;3.45;;;3.10;;
41799;SDS011;27468;47.460;19.034;2022-07-06T14:07:17;2.53;;;2.33;;
41799;SDS011;27468;47.460;19.034;2022-07-06T14:09:42;3.25;;;2.80;;
41799;SDS011;27468;47.460;19.034;2022-07-06T14:12:08;3.38;;;2.90;;
41799;SDS011;27468;47.460;19.034;2022-07-06T14:14:33;3.80;;;2.85;;
41799;SDS011;27468;47.460;19.034;2022-07-06T14:16:59;2.75;;;2.50;;
41799;SDS011;27468;47.460;19.034;2022-07-06T14:19:24;3.72;;;2.50;;
41799;SDS011;27468;47.460;19.034;2022-07-06T14:21:51;5.18;;;2.60;;
41799;SDS011;27468;47.460;19.034;2022-07-06T14:24:16;2.53;;;2.10;;
41799;SDS011;27468;47.460;19.034;2022-07-06T14:26:42;2.70;;;2.50;;
41799;SDS011;27468;47.460;19.034;2022-07-06T14:29:08;3.42;;;2.80;;
41799;SDS011;27468;47.460;19.034;2022-07-06T14:31:33;2.95;;;2.60;;
41799;SDS011;27468;47.460;19.034;2022-07-06T14:33:59;4.75;;;2.80;;
41799;SDS011;27468;47.460;19.034;2022-07-06T14:36:24;2.60;;;2.40;;
41799;SDS011;27468;47.460;19.034;2022-07-06T14:38:50;2.67;;;2.40;;
41799;SDS011;27468;47.460;19.034;2022-07-06T14:41:15;2.83;;;2.25;;
41799;SDS011;27468;47.460;19.034;2022-07-06T14:43:41;3.45;;;2.30;;
41799;SDS011;27468;47.460;19.034;2022-07-06T14:46:06;2.50;;;2.08;;
41799;SDS011;27468;47.460;19.034;2022-07-06T14:48:32;3.22;;;2.40;;
41799;SDS011;27468;47.460;19.034;2022-07-06T14:50:57;2.10;;;2.00;;
41799;SDS011;27468;47.460;19.034;2022-07-06T14:53:23;2.30;;;1.80;;
41799;SDS011;27468;47.460;19.034;2022-07-06T14:55:48;2.17;;;1.98;;